createdAt,value
2022-11-08T06:25:30.324Z,60.14
2022-11-08T06:27:31.810Z,60.29
2022-11-08T06:29:33.333Z,60.21
2022-11-08T06:31:37.333Z,60.05
2022-11-08T06:33:42.055Z,59.84
2022-11-08T06:35:43.669Z,59.96
2022-11-08T06:37:45.209Z,59.31
2022-11-08T06:39:46.685Z,59.03
2022-11-08T06:41:49.798Z,59.42
2022-11-08T06:43:51.325Z,59.28
2022-11-08T06:45:52.855Z,59.21
2022-11-08T06:47:57.366Z,59.54
2022-11-08T06:49:58.888Z,59.39
2022-11-08T06:52:00.493Z,59.58
2022-11-08T06:54:02.040Z,59.79
2022-11-08T06:56:03.918Z,59.21
2022-11-08T06:58:06.977Z,58.93
2022-11-08T07:00:09.816Z,58.93
2022-11-08T07:02:11.749Z,58.89
2022-11-08T07:04:13.349Z,58.79
2022-11-08T07:06:14.891Z,58.88
2022-11-08T07:08:22.360Z,58.60
2022-11-08T07:10:28.060Z,59.58
2022-11-08T07:12:31.921Z,58.77
2022-11-08T07:14:35.466Z,59.11
2022-11-08T07:16:36.957Z,59.65
2022-11-08T07:18:38.612Z,59.51
2022-11-08T07:20:41.636Z,59.32
2022-11-08T07:22:43.162Z,58.93
2022-11-08T07:24:44.625Z,59.07
2022-11-08T07:26:46.466Z,59.03
2022-11-08T07:28:48.013Z,59.39
2022-11-08T07:30:50.952Z,59.25
2022-11-08T07:32:53.348Z,59.50
2022-11-08T07:34:54.980Z,59.53
2022-11-08T07:36:56.577Z,59.69
2022-11-08T07:39:00.194Z,59.86
2022-11-08T07:41:06.113Z,59.31
2022-11-08T07:43:23.735Z,59.72
2022-11-08T07:45:25.896Z,59.42
2022-11-08T07:47:29.107Z,60.30
2022-11-08T07:49:30.950Z,59.08
2022-11-08T07:51:32.650Z,58.80
2022-11-08T07:53:34.193Z,58.54
2022-11-08T07:55:36.495Z,58.94
2022-11-08T07:57:38.183Z,59.46
2022-11-08T07:59:39.853Z,59.25
2022-11-08T08:01:41.464Z,59.65
2022-11-08T08:03:44.644Z,58.98
2022-11-08T08:05:52.951Z,58.54
2022-11-08T08:07:58.112Z,58.68
2022-11-08T08:10:00.190Z,59.71
2022-11-08T08:12:01.786Z,59.64
2022-11-08T08:14:03.531Z,59.45
2022-11-08T08:16:05.636Z,59.25
2022-11-08T08:18:08.577Z,59.67
2022-11-08T08:20:13.519Z,59.60
2022-11-08T08:22:15.418Z,59.77
2022-11-08T08:24:17.556Z,60.17
2022-11-08T08:26:19.624Z,60.57
2022-11-08T08:28:21.454Z,60.57
2022-11-08T08:30:24.652Z,60.93
2022-11-08T08:32:31.296Z,61.24
2022-11-08T08:34:33.685Z,61.51
2022-11-08T08:36:37.136Z,60.79
2022-11-08T08:38:44.174Z,59.99
2022-11-08T08:40:46.473Z,59.41
2022-11-08T08:42:48.317Z,59.86
2022-11-08T08:44:50.002Z,59.83
2022-11-08T08:46:51.623Z,60.31
2022-11-08T08:48:53.259Z,59.47
2022-11-08T08:50:55.147Z,58.81
2022-11-08T08:52:59.572Z,59.15
2022-11-08T08:55:01.130Z,58.16
2022-11-08T08:57:02.779Z,58.16
2022-11-08T09:01:41.259Z,57.61
2022-11-08T09:03:43.057Z,56.86
2022-11-08T09:05:44.837Z,57.23
2022-11-08T09:07:46.395Z,57.25
2022-11-08T09:09:49.248Z,56.13
2022-11-08T09:11:50.800Z,56.36
2022-11-08T09:13:52.354Z,56.69
2022-11-08T09:15:54.079Z,55.95
2022-11-08T09:17:56.106Z,56.02
2022-11-08T09:19:57.740Z,55.71
2022-11-08T09:21:59.350Z,55.33
2022-11-08T09:24:00.967Z,54.97
2022-11-08T09:26:05.239Z,54.82
2022-11-08T09:28:07.492Z,55.36
2022-11-08T09:30:10.281Z,55.08
2022-11-08T09:32:11.901Z,54.33
2022-11-08T09:34:15.145Z,53.23
2022-11-08T09:36:19.300Z,52.83
2022-11-08T09:38:20.962Z,52.53
2022-11-08T09:40:30.201Z,51.57
2022-11-08T09:42:45.317Z,51.07
2022-11-08T09:45:03.052Z,49.97
2022-11-08T09:47:14.380Z,49.09
2022-11-08T09:49:21.190Z,48.61
2022-11-08T09:51:24.264Z,48.66
2022-11-08T09:53:32.332Z,47.78
2022-11-08T09:55:39.733Z,48.05
2022-11-08T09:57:52.615Z,48.18
2022-11-08T10:00:00.944Z,48.94
2022-11-08T10:02:03.177Z,48.95
2022-11-08T10:04:08.907Z,49.61
2022-11-08T10:06:46.175Z,49.37
2022-11-08T10:08:55.437Z,49.60
2022-11-08T10:11:20.214Z,49.74
2022-11-08T10:13:33.854Z,49.46
2022-11-08T10:15:41.321Z,49.73
2022-11-08T10:18:27.029Z,50.36
2022-11-08T10:20:40.088Z,49.70
2022-11-08T10:22:51.681Z,50.30
2022-11-08T10:25:00.436Z,49.38
2022-11-08T10:27:03.760Z,49.23
2022-11-08T10:29:14.137Z,49.46
2022-11-08T10:31:17.854Z,48.80
2022-11-08T10:33:22.811Z,48.68
2022-11-08T10:35:31.127Z,48.00
2022-11-08T10:37:34.080Z,47.73
2022-11-08T10:39:42.725Z,46.77
2022-11-08T10:41:49.911Z,47.02
2022-11-08T10:43:57.977Z,47.05
2022-11-08T10:46:00.964Z,47.18
2022-11-08T10:48:03.148Z,47.13
2022-11-08T10:50:13.812Z,46.69
2022-11-08T10:52:18.441Z,47.39
2022-11-08T10:54:49.377Z,47.00
2022-11-08T10:56:54.985Z,48.18
2022-11-08T10:58:56.553Z,48.60
2022-11-08T11:01:05.925Z,47.59
2022-11-08T11:03:23.476Z,47.15
2022-11-08T11:05:31.300Z,46.87
2022-11-08T11:07:34.744Z,48.09
2022-11-08T11:09:36.284Z,48.15
2022-11-08T11:11:38.297Z,48.22
2022-11-08T11:13:39.843Z,47.99
2022-11-08T11:15:46.299Z,46.68
2022-11-08T11:17:49.222Z,47.37
2022-11-08T11:19:54.854Z,46.44
2022-11-08T11:22:01.488Z,45.46
2022-11-08T11:24:08.990Z,45.43
2022-11-08T11:26:20.224Z,45.85
2022-11-08T11:28:21.814Z,45.50
2022-11-08T11:30:29.340Z,46.52
2022-11-08T11:32:34.270Z,45.84
2022-11-08T11:34:50.692Z,45.88
2022-11-08T11:36:57.137Z,45.58
2022-11-08T11:39:02.768Z,45.85
2022-11-08T11:41:12.938Z,44.80
2022-11-08T11:43:24.152Z,44.37
2022-11-08T11:45:30.797Z,43.62
2022-11-08T11:47:37.441Z,44.25
2022-11-08T11:49:42.911Z,44.90
2022-11-08T11:51:45.927Z,44.42
2022-11-08T11:53:48.924Z,45.66
2022-11-08T11:56:25.941Z,45.83
2022-11-08T11:58:45.494Z,45.79
2022-11-08T12:00:56.010Z,45.40
2022-11-08T12:03:36.099Z,45.68
2022-11-08T12:05:56.191Z,45.79
2022-11-08T12:08:12.128Z,46.12
2022-11-08T12:10:23.654Z,46.31
2022-11-08T12:12:41.565Z,45.38
2022-11-08T12:14:57.479Z,45.50
2022-11-08T12:17:10.160Z,45.52
2022-11-08T12:19:29.077Z,45.94
2022-11-08T12:21:38.161Z,45.76
2022-11-08T12:23:56.465Z,46.15
2022-11-08T12:26:09.394Z,46.52
2022-11-08T12:28:28.307Z,46.29
2022-11-08T12:30:37.342Z,46.22
2022-11-08T12:32:54.112Z,46.22
2022-11-08T12:35:19.040Z,46.64
2022-11-08T12:37:30.766Z,46.58
2022-11-08T12:39:42.304Z,46.72
2022-11-08T12:41:53.648Z,47.05
2022-11-08T12:44:15.481Z,46.67
2022-11-08T12:46:18.914Z,46.92
2022-11-08T12:48:32.525Z,47.35
2022-11-08T12:50:44.252Z,46.64
2022-11-08T12:53:02.290Z,46.63
2022-11-08T12:55:11.340Z,46.87
2022-11-08T12:57:15.869Z,46.29
2022-11-08T12:59:22.701Z,46.56
2022-11-08T13:01:24.328Z,46.63
2022-11-08T13:03:52.225Z,46.31
